createdAt,value
2019-03-23T00:00:38.928Z,947.30
2019-03-23T00:01:17.886Z,721.37
2019-03-23T00:01:54.326Z,979.45
2019-03-23T00:02:30.625Z,1118.68
2019-03-23T00:03:06.870Z,1197.20
2019-03-23T00:03:43.105Z,1486.50
2019-03-23T00:04:19.484Z,1046.88
2019-03-23T00:04:55.666Z,1686.83
2019-03-23T00:05:31.984Z,1465.40
2019-03-23T00:06:08.323Z,843.92
2019-03-23T00:06:44.652Z,1151.05
2019-03-23T00:07:21.125Z,800.70
2019-03-23T00:07:57.245Z,838.80
2019-03-23T00:08:33.486Z,1102.83
2019-03-23T00:09:09.722Z,1347.95
2019-03-23T00:09:45.886Z,1406.35
2019-03-23T00:10:24.405Z,1317.15
2019-03-23T00:11:00.666Z,1001.75
2019-03-23T00:11:36.724Z,1499.98
2019-03-23T00:12:13.051Z,1284.75
2019-03-23T00:12:49.407Z,1033.10
2019-03-23T00:13:25.565Z,1155.08
2019-03-23T00:14:01.866Z,999.85
2019-03-23T00:14:37.923Z,1008.15
2019-03-23T00:15:14.225Z,1339.08
2019-03-23T00:15:50.264Z,1435.08
2019-03-23T00:16:26.463Z,1444.00
2019-03-23T00:17:02.603Z,1026.48
2019-03-23T00:17:38.723Z,1513.98
2019-03-23T00:18:14.983Z,1197.23
2019-03-23T00:18:51.203Z,1081.83
2019-03-23T00:19:27.651Z,1136.15
2019-03-23T00:20:03.960Z,1310.25
2019-03-23T00:20:40.328Z,1384.10
2019-03-23T00:21:16.341Z,1208.20
2019-03-23T00:21:52.580Z,1082.58
2019-03-23T00:22:30.659Z,1179.78
2019-03-23T00:23:07.019Z,1108.33
2019-03-23T00:23:43.339Z,1046.68
2019-03-23T00:24:19.539Z,1323.40
2019-03-23T00:24:55.939Z,1449.45
2019-03-23T00:25:32.239Z,1095.45
2019-03-23T00:26:08.391Z,1264.40
2019-03-23T00:26:44.680Z,1254.95
2019-03-23T00:27:20.859Z,992.35
2019-03-23T00:27:56.920Z,1440.45
2019-03-23T00:28:33.327Z,1511.60
2019-03-23T00:29:09.581Z,1446.95
2019-03-23T00:29:45.679Z,1593.30
2019-03-23T00:30:21.899Z,1469.88
2019-03-23T00:30:57.859Z,1188.23
2019-03-23T00:31:34.040Z,1057.15
2019-03-23T00:32:10.262Z,922.30
2019-03-23T00:32:46.499Z,976.48
2019-03-23T00:33:22.779Z,1283.35
2019-03-23T00:33:59.341Z,1329.08
2019-03-23T00:34:35.521Z,1475.85
2019-03-23T00:35:11.722Z,1378.05
2019-03-23T00:35:47.941Z,1186.70
2019-03-23T00:36:24.261Z,1003.40
2019-03-23T00:37:00.423Z,987.30
2019-03-23T00:37:37.027Z,905.15
2019-03-23T00:38:13.281Z,1210.83
2019-03-23T00:38:49.341Z,1231.23
2019-03-23T00:39:25.684Z,1117.90
2019-03-23T00:40:01.950Z,1145.18
2019-03-23T00:40:38.079Z,946.27
2019-03-23T00:41:14.378Z,1151.30
2019-03-23T00:41:50.524Z,1586.88
2019-03-23T00:42:26.605Z,1154.68
2019-03-23T00:43:02.730Z,921.40
2019-03-23T00:43:38.999Z,1123.58
2019-03-23T00:44:15.223Z,913.45
2019-03-23T00:44:51.363Z,1082.00
2019-03-23T00:45:27.663Z,1171.00
2019-03-23T00:46:04.082Z,1291.43
2019-03-23T00:46:40.113Z,961.63
2019-03-23T00:47:16.280Z,1124.73
2019-03-23T00:47:52.421Z,1373.18
2019-03-23T00:48:28.828Z,876.30
2019-03-23T00:49:05.461Z,1330.03
2019-03-23T00:49:41.996Z,1183.10
2019-03-23T00:50:18.360Z,1638.18
2019-03-23T00:50:54.500Z,924.87
2019-03-23T00:51:31.022Z,981.25
2019-03-23T00:52:07.284Z,1185.25
2019-03-23T00:52:43.456Z,1400.47
2019-03-23T00:53:19.638Z,910.30
2019-03-23T00:53:55.937Z,1245.53
2019-03-23T00:54:31.998Z,828.63
2019-03-23T00:55:08.618Z,748.45
2019-03-23T00:55:44.746Z,873.83
2019-03-23T00:56:21.476Z,825.42
2019-03-23T00:56:57.936Z,544.15
2019-03-23T00:57:34.176Z,954.20
2019-03-23T00:58:10.456Z,976.85
2019-03-23T00:58:46.997Z,975.77
2019-03-23T00:59:23.156Z,690.20
2019-03-23T00:59:59.345Z,1026.53
2019-03-23T01:00:35.625Z,817.85
2019-03-23T01:01:12.107Z,851.82
2019-03-23T01:01:48.709Z,819.08
2019-03-23T01:02:25.199Z,1445.00
2019-03-23T01:03:01.339Z,1569.58
2019-03-23T01:03:37.439Z,1265.25
2019-03-23T01:04:13.619Z,681.67
2019-03-23T01:04:49.984Z,1272.60
2019-03-23T01:05:26.179Z,1384.30
2019-03-23T01:06:02.339Z,917.60
2019-03-23T01:06:38.627Z,836.25
2019-03-23T01:07:15.239Z,853.70
2019-03-23T01:07:51.540Z,1089.95
2019-03-23T01:08:27.879Z,1658.98
2019-03-23T01:09:04.226Z,1599.10
2019-03-23T01:09:40.379Z,719.20
2019-03-23T01:10:16.639Z,1314.38
2019-03-23T01:10:52.684Z,1100.00
2019-03-23T01:11:28.823Z,984.85
2019-03-23T01:12:05.201Z,730.30
2019-03-23T01:12:41.506Z,675.60
2019-03-23T01:13:17.699Z,1180.20
2019-03-23T01:13:53.819Z,1277.08
2019-03-23T01:14:30.207Z,1107.97
2019-03-23T01:15:07.060Z,751.87
2019-03-23T01:15:43.419Z,798.15
2019-03-23T01:16:19.619Z,785.52
2019-03-23T01:16:55.839Z,877.37
2019-03-23T01:17:32.026Z,817.53
2019-03-23T01:18:08.139Z,856.53
2019-03-23T01:18:44.237Z,1242.80
2019-03-23T01:19:20.522Z,868.22
2019-03-23T01:19:56.700Z,865.85
2019-03-23T01:20:32.901Z,902.67
2019-03-23T01:21:09.123Z,1212.60
2019-03-23T01:21:45.719Z,1225.03
2019-03-23T01:22:21.899Z,930.40
2019-03-23T01:22:58.099Z,880.25
2019-03-23T01:23:34.352Z,952.37
2019-03-23T01:24:10.605Z,908.95
2019-03-23T01:24:46.878Z,1044.90
2019-03-23T01:25:23.037Z,893.30
2019-03-23T01:25:59.195Z,617.40
2019-03-23T01:26:35.362Z,788.67
2019-03-23T01:27:11.541Z,1116.18
2019-03-23T01:27:47.469Z,823.23
2019-03-23T01:28:23.541Z,642.45
2019-03-23T01:28:59.531Z,619.40
2019-03-23T01:29:35.561Z,812.08
2019-03-23T01:30:12.266Z,633.17
2019-03-23T01:30:48.770Z,712.98
2019-03-23T01:31:24.850Z,756.05
2019-03-23T01:32:01.191Z,788.67
2019-03-23T01:32:37.490Z,1014.05
2019-03-23T01:33:13.551Z,627.80
2019-03-23T01:33:49.550Z,687.58
2019-03-23T01:34:25.622Z,702.92
2019-03-23T01:35:01.550Z,582.33
2019-03-23T01:35:37.564Z,536.45
2019-03-23T01:36:13.562Z,425.83
2019-03-23T01:36:49.602Z,569.88
2019-03-23T01:37:25.582Z,1116.15
2019-03-23T01:38:01.622Z,600.35
2019-03-23T01:38:37.902Z,480.70
2019-03-23T01:39:14.163Z,848.72
2019-03-23T01:39:50.443Z,806.23
2019-03-23T01:40:26.542Z,711.25
2019-03-23T01:41:02.741Z,594.77
2019-03-23T01:41:38.782Z,837.83
2019-03-23T01:42:14.801Z,367.35
2019-03-23T01:42:50.901Z,782.12
2019-03-23T01:43:26.961Z,646.65
2019-03-23T01:44:03.204Z,1089.48
2019-03-23T01:44:39.242Z,1147.13
2019-03-23T01:45:15.581Z,945.73
2019-03-23T01:45:51.641Z,1265.43
2019-03-23T01:46:27.782Z,945.48
2019-03-23T01:47:03.863Z,757.52
2019-03-23T01:47:39.981Z,556.17
2019-03-23T01:48:16.163Z,876.33
2019-03-23T01:48:52.181Z,465.95
2019-03-23T01:49:28.521Z,749.92
2019-03-23T01:50:04.581Z,684.40
2019-03-23T01:50:40.721Z,635.35
2019-03-23T01:51:16.968Z,635.92
2019-03-23T01:51:53.441Z,1064.63
2019-03-23T01:52:29.702Z,404.20
2019-03-23T01:53:05.881Z,608.07
2019-03-23T01:53:42.100Z,572.33
2019-03-23T01:54:18.261Z,978.73
2019-03-23T01:54:54.559Z,784.35
2019-03-23T01:55:30.613Z,871.05
2019-03-23T01:56:06.796Z,701.90
2019-03-23T01:56:43.261Z,831.80
2019-03-23T01:57:19.264Z,960.28
2019-03-23T01:57:55.449Z,783.67
2019-03-23T01:58:31.441Z,901.95
2019-03-23T01:59:07.481Z,768.30
2019-03-23T01:59:43.719Z,851.25
2019-03-23T02:00:20.059Z,1458.63
2019-03-23T02:00:56.102Z,982.87
2019-03-23T02:01:32.159Z,719.02
2019-03-23T02:02:08.259Z,959.95
2019-03-23T02:02:44.410Z,931.70
2019-03-23T02:03:20.700Z,1101.08
2019-03-23T02:03:57.013Z,858.87
2019-03-23T02:04:33.309Z,1058.63
2019-03-23T02:05:09.825Z,1010.58
2019-03-23T02:05:46.052Z,1425.80
2019-03-23T02:06:22.332Z,1214.55
2019-03-23T02:06:58.304Z,930.60
2019-03-23T02:07:34.646Z,1710.50
2019-03-23T02:08:10.785Z,1406.80
2019-03-23T02:08:46.979Z,1083.97
2019-03-23T02:09:23.300Z,889.90
2019-03-23T02:09:59.557Z,1194.93
2019-03-23T02:10:35.653Z,836.82
2019-03-23T02:11:11.957Z,1519.90
2019-03-23T02:11:48.119Z,1079.10
2019-03-23T02:12:24.437Z,744.70
2019-03-23T02:13:00.760Z,958.77
2019-03-23T02:13:36.877Z,761.28
2019-03-23T02:14:13.039Z,882.95
2019-03-23T02:14:49.179Z,1435.93
2019-03-23T02:15:25.279Z,1225.90
2019-03-23T02:16:01.620Z,809.37
2019-03-23T02:16:37.899Z,787.20
2019-03-23T02:17:14.123Z,816.45
2019-03-23T02:17:50.084Z,876.35
2019-03-23T02:18:26.262Z,1005.13
2019-03-23T02:19:02.547Z,1112.80
2019-03-23T02:19:38.887Z,1135.08
2019-03-23T02:20:15.306Z,739.63
2019-03-23T02:20:51.624Z,1026.33
2019-03-23T02:21:27.883Z,847.05
2019-03-23T02:22:04.084Z,748.30
2019-03-23T02:22:40.704Z,894.43
2019-03-23T02:23:17.024Z,689.95
2019-03-23T02:23:53.301Z,513.48
2019-03-23T02:24:29.524Z,376.15
2019-03-23T02:25:05.804Z,423.55
2019-03-23T02:25:41.924Z,796.70
2019-03-23T02:26:18.144Z,493.77
2019-03-23T02:26:54.324Z,452.60
2019-03-23T02:27:30.585Z,423.40
2019-03-23T02:28:07.365Z,728.50
2019-03-23T02:28:43.637Z,683.17
2019-03-23T02:29:19.698Z,399.88
2019-03-23T02:29:55.878Z,386.77
2019-03-23T02:30:31.940Z,436.52
2019-03-23T02:31:08.179Z,642.70
2019-03-23T02:31:44.408Z,833.07
2019-03-23T02:32:20.719Z,915.83
2019-03-23T02:32:57.054Z,429.72
2019-03-23T02:33:33.217Z,453.20
2019-03-23T02:34:09.300Z,375.40
2019-03-23T02:34:45.317Z,306.98
2019-03-23T02:35:21.499Z,629.08
2019-03-23T02:35:57.725Z,293.33
2019-03-23T02:36:34.117Z,238.32
2019-03-23T02:37:10.259Z,247.80
2019-03-23T02:37:46.419Z,549.90
2019-03-23T02:38:22.788Z,677.65
2019-03-23T02:38:59.077Z,554.92
2019-03-23T02:39:35.157Z,489.45
2019-03-23T02:40:11.591Z,1121.60
2019-03-23T02:40:47.778Z,1145.53
2019-03-23T02:41:23.882Z,803.03
2019-03-23T02:42:00.258Z,989.83
2019-03-23T02:42:36.698Z,1153.65
2019-03-23T02:43:12.877Z,1135.43
2019-03-23T02:43:49.178Z,1111.45
2019-03-23T02:44:25.257Z,1126.20
2019-03-23T02:45:01.379Z,938.65
2019-03-23T02:45:37.452Z,552.28
2019-03-23T02:46:13.579Z,633.70
2019-03-23T02:46:49.841Z,533.95
2019-03-23T02:47:26.039Z,447.20
2019-03-23T02:48:02.342Z,907.58
2019-03-23T02:48:38.458Z,540.90
2019-03-23T02:49:14.538Z,498.47
2019-03-23T02:49:50.837Z,493.73
2019-03-23T02:50:26.999Z,507.80
2019-03-23T02:51:03.195Z,470.95
2019-03-23T02:51:39.883Z,473.13
2019-03-23T02:52:16.187Z,424.48
2019-03-23T02:52:52.407Z,608.62
2019-03-23T02:53:28.707Z,570.15
2019-03-23T02:54:05.168Z,511.68
2019-03-23T02:54:41.337Z,546.20
2019-03-23T02:55:17.465Z,181.30
2019-03-23T02:55:53.714Z,172.35
2019-03-23T02:56:29.855Z,189.57
2019-03-23T02:57:06.244Z,192.25
2019-03-23T02:57:42.459Z,291.60
2019-03-23T02:58:18.503Z,274.58
2019-03-23T02:58:54.786Z,327.22
2019-03-23T02:59:30.927Z,338.85
2019-03-23T03:00:08.518Z,433.10
2019-03-23T03:00:44.443Z,631.20
2019-03-23T03:01:20.643Z,653.02
2019-03-23T03:01:56.810Z,553.98
2019-03-23T03:02:32.802Z,597.55
2019-03-23T03:03:09.023Z,391.65
2019-03-23T03:03:45.123Z,532.92
2019-03-23T03:04:21.520Z,542.10
2019-03-23T03:04:57.701Z,435.00
2019-03-23T03:05:33.741Z,311.75
2019-03-23T03:06:09.981Z,241.27
2019-03-23T03:06:46.308Z,405.22
2019-03-23T03:07:22.484Z,415.55
2019-03-23T03:07:58.699Z,516.77
2019-03-23T03:08:34.737Z,737.40
2019-03-23T03:09:11.127Z,372.82
2019-03-23T03:09:47.425Z,283.77
2019-03-23T03:10:42.967Z,257.12
2019-03-23T03:11:19.628Z,435.75
2019-03-23T03:11:55.879Z,978.10
2019-03-23T03:12:32.039Z,743.52
2019-03-23T03:13:08.260Z,530.10
2019-03-23T03:13:44.560Z,498.17
2019-03-23T03:14:20.666Z,443.75
2019-03-23T03:14:56.638Z,389.87
2019-03-23T03:15:32.927Z,465.47
2019-03-23T03:16:08.958Z,462.05
2019-03-23T03:16:45.217Z,566.52
2019-03-23T03:17:21.385Z,540.20
2019-03-23T03:17:57.537Z,529.08
2019-03-23T03:18:33.759Z,555.77
2019-03-23T03:19:09.899Z,523.33
2019-03-23T03:19:46.199Z,532.83
2019-03-23T03:20:22.220Z,557.33
2019-03-23T03:20:58.258Z,559.63
2019-03-23T03:21:34.278Z,595.38
2019-03-23T03:22:10.177Z,630.40
2019-03-23T03:22:46.247Z,658.62
2019-03-23T03:23:22.343Z,926.45
2019-03-23T03:23:58.579Z,1119.45
2019-03-23T03:24:34.600Z,909.52
2019-03-23T03:25:10.966Z,611.95
2019-03-23T03:25:46.915Z,656.45
2019-03-23T03:26:23.336Z,506.65
2019-03-23T03:26:59.437Z,527.90
2019-03-23T03:27:35.495Z,296.30
2019-03-23T03:28:11.762Z,383.90
2019-03-23T03:28:47.981Z,326.52
2019-03-23T03:29:24.082Z,410.40
2019-03-23T03:30:00.430Z,164.37
2019-03-23T03:30:36.711Z,123.80
2019-03-23T03:31:12.757Z,157.43
2019-03-23T03:31:48.762Z,299.12
2019-03-23T03:32:25.002Z,536.23
2019-03-23T03:33:01.132Z,271.62
2019-03-23T03:33:37.184Z,224.50
2019-03-23T03:34:13.253Z,267.18
2019-03-23T03:34:49.313Z,202.62
2019-03-23T03:35:25.336Z,176.42
2019-03-23T03:36:01.505Z,211.75
2019-03-23T03:36:37.604Z,190.57
2019-03-23T03:37:13.622Z,313.25
2019-03-23T03:37:56.491Z,139.72
2019-03-23T03:38:27.482Z,185.03
2019-03-23T03:39:04.561Z,172.78
2019-03-23T03:39:40.758Z,199.50
2019-03-23T03:40:16.966Z,212.38
2019-03-23T03:40:53.217Z,205.80
2019-03-23T03:41:29.660Z,178.80
2019-03-23T03:42:05.739Z,191.12
2019-03-23T03:42:41.924Z,201.80
2019-03-23T03:43:18.072Z,144.97
2019-03-23T03:43:54.281Z,135.22
2019-03-23T03:44:30.542Z,139.18
2019-03-23T03:45:06.761Z,126.33
2019-03-23T03:45:42.858Z,131.87
2019-03-23T03:46:18.962Z,262.52
2019-03-23T03:46:55.122Z,210.72
2019-03-23T03:47:31.144Z,205.67
2019-03-23T03:48:07.241Z,144.13
2019-03-23T03:48:43.390Z,113.20
2019-03-23T03:49:19.699Z,141.20
2019-03-23T03:49:55.918Z,138.45
2019-03-23T03:50:32.084Z,110.50
2019-03-23T03:51:08.197Z,110.85
2019-03-23T03:51:44.197Z,142.68
2019-03-23T03:52:20.355Z,140.95
2019-03-23T03:52:56.376Z,118.55
2019-03-23T03:53:32.478Z,220.00
2019-03-23T03:54:08.600Z,229.70
2019-03-23T03:54:44.798Z,215.18
2019-03-23T03:55:20.988Z,371.30
2019-03-23T03:55:57.082Z,312.90
2019-03-23T03:56:33.087Z,185.90
2019-03-23T03:57:09.562Z,405.35
2019-03-23T03:57:45.707Z,173.38
2019-03-23T03:58:22.163Z,224.25
2019-03-23T03:58:58.143Z,143.02
2019-03-23T03:59:34.321Z,269.25
2019-03-23T04:00:10.637Z,327.75
2019-03-23T04:00:46.878Z,515.17
2019-03-23T04:01:22.994Z,477.88
2019-03-23T04:01:59.238Z,519.20
2019-03-23T04:02:35.518Z,789.60
2019-03-23T04:03:11.597Z,382.05
2019-03-23T04:03:47.779Z,482.65
2019-03-23T04:04:23.842Z,330.98
2019-03-23T04:04:59.960Z,283.40
2019-03-23T04:05:36.279Z,740.47
2019-03-23T04:06:12.440Z,795.27
2019-03-23T04:06:48.701Z,869.37
2019-03-23T04:07:24.903Z,260.23
2019-03-23T04:08:11.031Z,255.47
2019-03-23T04:08:38.818Z,936.45
2019-03-23T04:09:14.894Z,266.60
2019-03-23T04:09:51.005Z,166.07
2019-03-23T04:10:27.122Z,188.40
2019-03-23T04:11:03.338Z,184.40
2019-03-23T04:11:39.418Z,221.40
2019-03-23T04:12:15.498Z,193.62
2019-03-23T04:12:51.719Z,185.93
2019-03-23T04:13:28.103Z,130.43
2019-03-23T04:14:04.271Z,122.80
2019-03-23T04:14:40.479Z,127.27
2019-03-23T04:15:16.724Z,148.82
2019-03-23T04:15:53.011Z,153.12
2019-03-23T04:16:29.142Z,133.47
2019-03-23T04:17:05.444Z,128.12
2019-03-23T04:17:41.502Z,128.55
2019-03-23T04:18:17.441Z,139.28
2019-03-23T04:18:53.642Z,148.45
2019-03-23T04:19:29.822Z,137.05
2019-03-23T04:20:06.747Z,112.08
2019-03-23T04:20:43.202Z,176.78
2019-03-23T04:21:19.502Z,126.27
2019-03-23T04:21:55.762Z,113.12
2019-03-23T04:22:32.140Z,102.50
2019-03-23T04:23:08.520Z,92.55
2019-03-23T04:23:44.781Z,101.47
2019-03-23T04:24:20.999Z,104.15
2019-03-23T04:24:57.161Z,89.37
2019-03-23T04:25:33.259Z,89.58
2019-03-23T04:26:09.460Z,82.35
2019-03-23T04:26:45.674Z,92.55
2019-03-23T04:27:21.789Z,79.92
2019-03-23T04:27:58.261Z,82.33
2019-03-23T04:28:34.663Z,89.42
2019-03-23T04:29:10.668Z,75.57
2019-03-23T04:29:46.739Z,90.65
2019-03-23T04:30:22.937Z,81.30
2019-03-23T04:30:59.467Z,76.65
2019-03-23T04:31:35.462Z,91.60
2019-03-23T04:32:11.577Z,113.47
2019-03-23T04:32:47.778Z,116.22
2019-03-23T04:33:23.998Z,256.23
2019-03-23T04:34:00.104Z,348.93
2019-03-23T04:34:36.100Z,93.33
2019-03-23T04:35:12.382Z,226.47
2019-03-23T04:35:48.440Z,95.05
2019-03-23T04:36:24.507Z,97.17
2019-03-23T04:37:00.778Z,179.18
2019-03-23T04:37:36.781Z,117.62
2019-03-23T04:38:22.275Z,130.45
2019-03-23T04:38:50.758Z,164.95
2019-03-23T04:39:26.878Z,129.38
2019-03-23T04:40:03.043Z,90.83
2019-03-23T04:40:39.125Z,71.22
2019-03-23T04:41:15.399Z,139.88
2019-03-23T04:41:51.739Z,217.03
2019-03-23T04:42:27.780Z,308.77
2019-03-23T04:43:03.839Z,274.73
2019-03-23T04:43:40.097Z,181.75
2019-03-23T04:44:16.157Z,284.55
2019-03-23T04:44:52.233Z,383.87
2019-03-23T04:45:28.457Z,764.83
2019-03-23T04:46:04.625Z,723.90
2019-03-23T04:46:40.853Z,500.75
2019-03-23T04:47:16.929Z,671.98
2019-03-23T04:47:53.132Z,1363.43
2019-03-23T04:48:29.534Z,1514.08
2019-03-23T04:49:05.776Z,1502.70
2019-03-23T04:49:42.113Z,1460.50
2019-03-23T04:50:18.565Z,1130.47
2019-03-23T04:50:54.867Z,838.18
2019-03-23T04:51:30.995Z,649.00
2019-03-23T04:52:07.188Z,716.30
2019-03-23T04:52:43.457Z,1449.65
2019-03-23T04:53:19.845Z,751.75
2019-03-23T04:53:56.004Z,558.07
2019-03-23T04:54:32.262Z,639.20
2019-03-23T04:55:10.731Z,618.85
2019-03-23T04:55:46.961Z,389.12
2019-03-23T04:56:23.258Z,356.17
2019-03-23T04:56:59.398Z,531.27
2019-03-23T04:57:35.419Z,262.57
2019-03-23T04:58:11.927Z,547.23
2019-03-23T04:58:48.019Z,287.42
2019-03-23T04:59:24.119Z,259.87
2019-03-23T05:00:00.294Z,247.10
2019-03-23T05:00:36.932Z,268.05
2019-03-23T05:01:13.105Z,181.70
2019-03-23T05:01:49.424Z,184.90
2019-03-23T05:02:25.564Z,152.45
2019-03-23T05:03:01.624Z,167.22
2019-03-23T05:03:37.944Z,156.78
2019-03-23T05:04:14.257Z,177.07
2019-03-23T05:04:50.398Z,154.03
2019-03-23T05:05:26.597Z,126.50
2019-03-23T05:06:02.797Z,128.00
2019-03-23T05:06:38.837Z,118.35
2019-03-23T05:07:14.945Z,110.12
2019-03-23T05:07:51.079Z,127.82
2019-03-23T05:08:33.364Z,132.12
2019-03-23T05:09:05.798Z,116.82
2019-03-23T05:09:41.877Z,130.00
2019-03-23T05:10:17.923Z,118.00
2019-03-23T05:10:54.102Z,115.82
2019-03-23T05:11:30.272Z,109.05
2019-03-23T05:12:06.521Z,111.28
2019-03-23T05:12:42.917Z,107.63
2019-03-23T05:13:19.270Z,102.97
2019-03-23T05:13:55.521Z,88.95
2019-03-23T05:14:31.622Z,110.60
2019-03-23T05:15:07.842Z,103.00
2019-03-23T05:15:44.088Z,106.52
2019-03-23T05:16:20.470Z,108.27
2019-03-23T05:16:56.821Z,103.55
2019-03-23T05:17:33.103Z,98.22
2019-03-23T05:18:09.105Z,109.32
2019-03-23T05:18:45.449Z,121.40
2019-03-23T05:19:21.699Z,120.20
2019-03-23T05:19:58.064Z,105.95
2019-03-23T05:20:34.668Z,100.62
2019-03-23T05:21:10.840Z,111.83
2019-03-23T05:21:46.982Z,99.58
2019-03-23T05:22:23.081Z,125.65
2019-03-23T05:22:59.628Z,111.47
2019-03-23T05:23:35.748Z,116.75
2019-03-23T05:24:11.888Z,110.12
2019-03-23T05:24:48.188Z,122.72
2019-03-23T05:25:26.263Z,94.75
2019-03-23T05:26:02.280Z,107.17
2019-03-23T05:26:38.691Z,129.95
2019-03-23T05:27:14.920Z,140.70
2019-03-23T05:27:51.147Z,132.78
2019-03-23T05:28:27.372Z,137.95
2019-03-23T05:29:03.583Z,129.53
2019-03-23T05:29:39.898Z,137.47
2019-03-23T05:30:16.229Z,123.82
2019-03-23T05:30:52.383Z,119.57
2019-03-23T05:31:28.582Z,87.82
2019-03-23T05:32:04.721Z,93.27
2019-03-23T05:32:40.929Z,116.15
2019-03-23T05:33:17.143Z,89.17
2019-03-23T05:33:53.289Z,103.32
2019-03-23T05:34:29.342Z,88.03
2019-03-23T05:35:05.457Z,94.97
2019-03-23T05:35:41.641Z,97.40
2019-03-23T05:36:17.722Z,82.57
2019-03-23T05:36:53.862Z,79.32
2019-03-23T05:37:29.962Z,84.92
2019-03-23T05:38:06.201Z,88.92
2019-03-23T05:38:44.688Z,81.40
2019-03-23T05:39:20.198Z,80.62
2019-03-23T05:39:56.457Z,115.80
2019-03-23T05:40:32.639Z,107.85
2019-03-23T05:41:08.933Z,129.55
2019-03-23T05:41:45.077Z,148.53
2019-03-23T05:42:21.159Z,145.17
2019-03-23T05:42:58.078Z,181.35
2019-03-23T05:43:34.237Z,159.78
2019-03-23T05:44:10.104Z,156.97
2019-03-23T05:44:46.158Z,172.50
2019-03-23T05:45:22.562Z,167.60
2019-03-23T05:45:58.667Z,162.45
2019-03-23T05:46:34.998Z,164.15
2019-03-23T05:47:11.177Z,155.97
2019-03-23T05:47:47.278Z,161.73
2019-03-23T05:48:23.442Z,155.43
2019-03-23T05:48:59.559Z,135.10
2019-03-23T05:49:35.549Z,138.68
2019-03-23T05:50:12.245Z,127.38
2019-03-23T05:50:48.725Z,120.55
2019-03-23T05:51:24.817Z,117.13
2019-03-23T05:52:01.607Z,116.67
2019-03-23T05:52:37.805Z,107.20
2019-03-23T05:53:13.978Z,101.67
2019-03-23T05:53:50.119Z,107.00
2019-03-23T05:54:26.218Z,101.82
2019-03-23T05:55:02.397Z,98.87
2019-03-23T05:55:38.917Z,94.25
2019-03-23T05:56:15.137Z,92.75
2019-03-23T05:56:51.158Z,79.97
2019-03-23T05:57:27.397Z,82.20
2019-03-23T05:58:03.581Z,74.92
2019-03-23T05:58:39.614Z,67.30
2019-03-23T05:59:16.019Z,63.50
2019-03-23T05:59:52.367Z,56.10
2019-03-23T06:00:28.499Z,63.98
2019-03-23T06:01:04.601Z,59.40
2019-03-23T06:01:40.682Z,56.92
2019-03-23T06:02:16.639Z,57.23
2019-03-23T06:02:52.700Z,53.20
2019-03-23T06:03:28.747Z,56.48
2019-03-23T06:04:05.181Z,48.25
2019-03-23T06:04:41.280Z,49.70
2019-03-23T06:05:17.481Z,53.98
2019-03-23T06:05:53.729Z,46.00
2019-03-23T06:06:29.860Z,46.48
2019-03-23T06:07:06.140Z,55.58
2019-03-23T06:07:42.319Z,49.83
2019-03-23T06:08:18.407Z,56.28
2019-03-23T06:08:55.424Z,50.88
2019-03-23T06:09:31.688Z,56.65
2019-03-23T06:10:07.978Z,49.45
2019-03-23T06:10:44.018Z,53.68
2019-03-23T06:11:19.990Z,47.93
2019-03-23T06:11:56.132Z,52.53
2019-03-23T06:12:32.347Z,52.05
2019-03-23T06:13:08.455Z,56.73
2019-03-23T06:13:44.629Z,49.13
2019-03-23T06:14:20.758Z,57.43
2019-03-23T06:14:57.177Z,64.72
2019-03-23T06:15:33.251Z,64.85
2019-03-23T06:16:09.263Z,64.30
2019-03-23T06:16:45.486Z,62.35
2019-03-23T06:17:21.712Z,62.62
2019-03-23T06:17:57.743Z,81.40
2019-03-23T06:18:33.850Z,81.72
2019-03-23T06:19:09.882Z,99.75
2019-03-23T06:19:46.555Z,79.47
2019-03-23T06:20:22.562Z,65.15
2019-03-23T06:20:58.482Z,84.13
2019-03-23T06:21:34.442Z,167.87
2019-03-23T06:22:10.586Z,117.87
2019-03-23T06:22:46.529Z,140.32
2019-03-23T06:23:22.879Z,172.45
2019-03-23T06:23:59.038Z,127.45
2019-03-23T06:24:35.098Z,168.52
2019-03-23T06:25:11.341Z,160.15
2019-03-23T06:25:47.498Z,161.60
2019-03-23T06:26:23.538Z,127.80
2019-03-23T06:27:00.134Z,180.30
2019-03-23T06:27:36.098Z,160.22
2019-03-23T06:28:12.162Z,98.40
2019-03-23T06:28:48.479Z,90.42
2019-03-23T06:29:25.219Z,85.62
2019-03-23T06:30:01.299Z,95.12
2019-03-23T06:30:37.402Z,130.90
2019-03-23T06:31:13.299Z,189.37
2019-03-23T06:31:49.383Z,190.38
2019-03-23T06:32:25.740Z,138.82
2019-03-23T06:33:01.799Z,182.10
2019-03-23T06:33:38.099Z,163.32
2019-03-23T06:34:14.360Z,128.10
2019-03-23T06:34:50.460Z,209.60
2019-03-23T06:35:26.780Z,130.03
2019-03-23T06:36:03.107Z,140.35
2019-03-23T06:36:39.300Z,144.05
2019-03-23T06:37:15.607Z,137.72
2019-03-23T06:37:51.867Z,166.82
2019-03-23T06:38:27.919Z,179.82
2019-03-23T06:39:05.719Z,133.00
2019-03-23T06:39:42.098Z,77.00
2019-03-23T06:40:18.280Z,92.27
2019-03-23T06:40:54.459Z,66.62
2019-03-23T06:41:30.498Z,73.45
2019-03-23T06:42:06.680Z,81.70
2019-03-23T06:42:42.958Z,98.33
2019-03-23T06:43:19.018Z,68.83
2019-03-23T06:43:55.159Z,80.53
2019-03-23T06:44:31.298Z,118.50
2019-03-23T06:45:08.306Z,73.78
2019-03-23T06:45:44.264Z,73.07
2019-03-23T06:46:20.419Z,68.15
2019-03-23T06:46:56.658Z,85.60
2019-03-23T06:47:32.718Z,62.83
2019-03-23T06:48:08.723Z,55.73
2019-03-23T06:48:44.818Z,60.05
2019-03-23T06:49:21.082Z,69.32
2019-03-23T06:49:57.061Z,54.00
2019-03-23T06:50:33.073Z,59.00
2019-03-23T06:51:09.237Z,54.85
2019-03-23T06:51:45.418Z,60.17
2019-03-23T06:52:21.420Z,59.38
2019-03-23T06:52:57.561Z,54.98
2019-03-23T06:53:33.540Z,55.05
2019-03-23T06:54:09.604Z,46.50
2019-03-23T06:54:45.698Z,54.58
2019-03-23T06:55:21.618Z,50.17
2019-03-23T06:55:58.159Z,49.67
2019-03-23T06:56:34.097Z,61.28
2019-03-23T06:57:10.764Z,54.20
2019-03-23T06:57:47.061Z,53.92
2019-03-23T06:58:23.124Z,49.35
2019-03-23T06:58:59.341Z,47.10
2019-03-23T06:59:35.461Z,47.50
2019-03-23T07:00:14.298Z,46.13
2019-03-23T07:00:50.281Z,50.83
2019-03-23T07:01:26.238Z,46.60
2019-03-23T07:02:02.717Z,49.30
2019-03-23T07:02:38.807Z,42.03
2019-03-23T07:03:15.095Z,46.02
2019-03-23T07:03:51.127Z,45.88
2019-03-23T07:04:27.068Z,46.02
2019-03-23T07:05:03.373Z,46.35
2019-03-23T07:05:39.345Z,43.55
2019-03-23T07:06:15.513Z,42.43
2019-03-23T07:06:51.594Z,40.30
2019-03-23T07:07:27.769Z,42.27
2019-03-23T07:08:03.821Z,43.00
2019-03-23T07:08:40.126Z,45.12
2019-03-23T07:09:16.674Z,43.68
2019-03-23T07:09:52.869Z,39.78
2019-03-23T07:10:29.149Z,41.75
2019-03-23T07:11:05.368Z,42.20
2019-03-23T07:11:41.666Z,44.75
2019-03-23T07:12:17.708Z,41.73
2019-03-23T07:12:53.746Z,37.60
2019-03-23T07:13:29.873Z,37.78
2019-03-23T07:14:06.373Z,36.20
2019-03-23T07:14:42.353Z,41.15
2019-03-23T07:15:20.197Z,41.10
2019-03-23T07:15:56.341Z,37.38
2019-03-23T07:16:32.649Z,41.02
2019-03-23T07:17:08.894Z,37.13
2019-03-23T07:17:45.037Z,34.13
2019-03-23T07:18:21.096Z,34.60
2019-03-23T07:18:57.266Z,33.35
2019-03-23T07:19:33.468Z,34.43
2019-03-23T07:20:10.598Z,35.78
2019-03-23T07:20:47.188Z,33.88
2019-03-23T07:21:23.239Z,33.85
2019-03-23T07:21:59.299Z,38.55
2019-03-23T07:22:35.446Z,35.68
2019-03-23T07:23:11.359Z,35.90
2019-03-23T07:23:47.660Z,31.30
2019-03-23T07:24:23.758Z,36.00
2019-03-23T07:24:59.868Z,32.50
2019-03-23T07:25:36.121Z,30.85
2019-03-23T07:26:12.266Z,32.95
2019-03-23T07:26:48.279Z,30.17
2019-03-23T07:27:24.721Z,33.63
2019-03-23T07:28:01.102Z,31.90
2019-03-23T07:28:37.259Z,34.27
2019-03-23T07:29:13.278Z,30.82
2019-03-23T07:29:49.457Z,31.37
2019-03-23T07:30:25.640Z,31.80
2019-03-23T07:31:01.838Z,32.28
2019-03-23T07:31:37.898Z,34.90
2019-03-23T07:32:14.157Z,38.75
2019-03-23T07:32:50.182Z,33.65
2019-03-23T07:33:26.423Z,31.70